Time;durP1;ratioP1;P1;durP2;ratioP2;P2;SDS_P1;SDS_P2;PMS_P1;PMS_P2;Temp;Humidity;BMP_temperature;BMP_pressure;BME280_temperature;BME280_humidity;BME280_pressure;Samples;Min_cycle;Max_cycle;Signal;HPM_P1;HPM_P2
2023/09/24 00:00:26;;;;;;;1.23;0.90;;;;;;;9.37;100.00;99012.06;15268978;19;20025;-54
2023/09/24 00:05:51;;;;;;;1.92;1.00;;;;;;;9.38;100.00;99020.97;15265409;19;20089;-49
2023/09/24 00:11:17;;;;;;;2.60;0.90;;;;;;;9.35;100.00;99024.78;15271987;19;20531;-49
2023/09/24 00:16:44;;;;;;;1.35;0.93;;;;;;;9.33;100.00;99013.31;15271070;19;20094;-49
2023/09/24 00:22:10;;;;;;;2.47;1.15;;;;;;;9.30;100.00;99028.88;15268373;19;20077;-51
2023/09/24 00:27:41;;;;;;;1.40;0.93;;;;;;;9.27;100.00;99035.38;15270060;19;20089;-52
2023/09/24 00:33:08;;;;;;;2.10;1.00;;;;;;;9.23;100.00;99036.66;15266869;19;20014;-50
2023/09/24 00:38:33;;;;;;;1.20;0.90;;;;;;;9.19;100.00;99051.34;15262559;19;20014;-49
2023/09/24 00:44:00;;;;;;;1.85;0.90;;;;;;;9.17;100.00;99066.78;15268356;19;20089;-52
2023/09/24 00:49:29;;;;;;;1.75;1.05;;;;;;;9.10;100.00;99063.78;15269952;19;20511;-51
2023/09/24 00:54:54;;;;;;;1.58;1.10;;;;;;;9.07;100.00;99061.34;15264545;19;20049;-49
2023/09/24 01:00:28;;;;;;;2.33;1.08;;;;;;;9.02;100.00;99061.78;15268788;19;20014;-53
2023/09/24 01:05:56;;;;;;;2.05;1.00;;;;;;;8.98;100.00;99070.25;15286591;19;20024;-49
2023/09/24 01:11:21;;;;;;;3.40;1.10;;;;;;;8.94;100.00;99073.19;15261187;19;20014;-54
2023/09/24 01:16:47;;;;;;;3.00;1.10;;;;;;;8.91;100.00;99080.69;15264595;19;20090;-49
2023/09/24 01:22:15;;;;;;;1.85;1.00;;;;;;;8.89;100.00;99085.31;15267812;19;20093;-49
2023/09/24 01:27:40;;;;;;;1.65;1.10;;;;;;;8.83;100.00;99092.09;15260589;19;20114;-52
2023/09/24 01:33:04;;;;;;;1.90;1.10;;;;;;;8.81;100.00;99095.91;15266626;19;20472;-52
2023/09/24 01:38:32;;;;;;;2.58;1.13;;;;;;;8.81;100.00;99102.13;15266206;19;20396;-53
2023/09/24 01:43:57;;;;;;;1.45;1.08;;;;;;;8.76;100.00;99110.56;15261022;19;20034;-51
2023/09/24 01:49:22;;;;;;;2.03;1.10;;;;;;;8.72;100.00;99122.56;15283746;19;20049;-52
2023/09/24 01:54:50;;;;;;;2.70;1.15;;;;;;;8.68;100.00;99126.50;15278974;19;20018;-49
2023/09/24 02:00:23;;;;;;;1.70;1.30;;;;;;;8.65;100.00;99134.81;14763706;19;10001291;-50
2023/09/24 02:05:47;;;;;;;1.35;0.95;;;;;;;8.59;100.00;99144.25;15275079;19;20023;-49
2023/09/24 02:11:14;;;;;;;2.70;1.17;;;;;;;8.58;100.00;99139.88;15277859;19;20786;-49
2023/09/24 02:16:42;;;;;;;1.98;1.20;;;;;;;8.52;100.00;99140.41;15270047;19;20456;-49
2023/09/24 02:22:08;;;;;;;1.95;1.20;;;;;;;8.52;100.00;99142.22;15277236;19;20460;-48
2023/09/24 02:27:35;;;;;;;2.10;1.10;;;;;;;8.51;100.00;99148.56;15275812;19;20018;-52
2023/09/24 02:33:02;;;;;;;1.80;1.10;;;;;;;8.50;100.00;99147.75;15275080;19;20029;-49
2023/09/24 02:38:26;;;;;;;4.18;1.20;;;;;;;8.44;100.00;99148.22;15274152;19;20010;-49
2023/09/24 02:44:02;;;;;;;2.95;1.10;;;;;;;8.43;100.00;99167.97;15278855;19;20011;-48
2023/09/24 02:49:27;;;;;;;2.03;1.10;;;;;;;8.41;100.00;99170.81;15272730;19;20014;-51
2023/09/24 02:54:51;;;;;;;1.58;1.10;;;;;;;8.39;100.00;99179.97;15276099;19;20078;-52
2023/09/24 03:00:21;;;;;;;1.95;1.10;;;;;;;8.39;100.00;99188.03;15274816;19;20017;-52
2023/09/24 03:05:46;;;;;;;1.80;0.90;;;;;;;8.36;100.00;99185.59;15270319;19;20020;-49
2023/09/24 03:11:17;;;;;;;1.50;0.98;;;;;;;8.33;100.00;99184.88;15274306;19;20030;-50
2023/09/24 03:16:44;;;;;;;1.38;1.00;;;;;;;8.32;100.00;99196.59;15270855;19;20735;-48
2023/09/24 03:22:10;;;;;;;1.95;1.10;;;;;;;8.30;100.00;99203.91;15276075;19;20021;-48
2023/09/24 03:27:34;;;;;;;2.90;1.30;;;;;;;8.27;100.00;99201.50;15270911;19;20017;-53
2023/09/24 03:33:03;;;;;;;4.60;1.00;;;;;;;8.27;100.00;99212.25;15273803;19;20027;-49
2023/09/24 03:38:28;;;;;;;1.60;1.10;;;;;;;8.24;100.00;99222.34;15266585;19;20018;-52
2023/09/24 03:43:53;;;;;;;1.85;1.02;;;;;;;8.22;100.00;99235.91;15272456;19;20035;-49
2023/09/24 03:49:20;;;;;;;2.03;1.17;;;;;;;8.20;100.00;99243.25;15268533;19;20021;-50
2023/09/24 03:54:45;;;;;;;3.33;1.23;;;;;;;8.20;100.00;99259.34;15270415;19;20018;-53
2023/09/24 04:00:13;;;;;;;1.83;1.08;;;;;;;8.14;100.00;99266.06;15271402;19;20018;-49
2023/09/24 04:05:41;;;;;;;1.90;1.20;;;;;;;8.14;100.00;99268.75;15270705;19;20035;-49
2023/09/24 04:11:06;;;;;;;1.75;1.10;;;;;;;8.14;100.00;99276.81;15267684;19;20018;-49
2023/09/24 04:16:32;;;;;;;2.08;1.20;;;;;;;8.13;100.00;99299.25;15268557;19;20014;-52
2023/09/24 04:21:59;;;;;;;2.55;1.20;;;;;;;8.08;100.00;99324.75;15262500;19;20081;-50
2023/09/24 04:27:25;;;;;;;1.63;1.10;;;;;;;8.08;100.00;99336.38;15270102;19;20025;-51
2023/09/24 04:32:49;;;;;;;2.50;1.33;;;;;;;8.06;100.00;99343.69;15270861;19;20109;-50
2023/09/24 04:38:18;;;;;;;2.05;1.17;;;;;;;8.04;100.00;99342.09;15269379;19;20367;-51
2023/09/24 04:43:42;;;;;;;1.35;1.00;;;;;;;8.00;100.00;99345.03;15263045;19;20024;-49
2023/09/24 04:49:08;;;;;;;2.00;1.20;;;;;;;7.99;100.00;99345.16;15268924;19;20014;-52
2023/09/24 04:54:35;;;;;;;1.95;1.00;;;;;;;7.95;100.00;99349.06;15262723;19;20355;-48
2023/09/24 05:00:00;;;;;;;1.25;1.10;;;;;;;7.91;100.00;99339.53;15267915;19;20038;-49
2023/09/24 05:05:25;;;;;;;1.95;1.30;;;;;;;7.86;100.00;99345.25;15268708;19;20029;-48
2023/09/24 05:10:53;;;;;;;1.98;1.10;;;;;;;7.83;100.00;99356.22;15269423;19;20021;-51
2023/09/24 05:16:21;;;;;;;2.53;1.20;;;;;;;7.77;100.00;99365.59;15262347;19;20473;-52
2023/09/24 05:21:46;;;;;;;1.02;0.93;;;;;;;7.75;100.00;99382.81;15274132;19;20017;-50
2023/09/24 05:27:17;;;;;;;2.45;1.25;;;;;;;7.72;100.00;99384.75;15274619;19;20471;-52
2023/09/24 05:32:42;;;;;;;2.40;1.20;;;;;;;7.71;100.00;99403.66;15280904;19;20532;-49
2023/09/24 05:38:07;;;;;;;1.58;1.02;;;;;;;7.70;100.00;99423.41;15277949;19;20018;-49
2023/09/24 05:43:35;;;;;;;2.58;1.20;;;;;;;7.70;100.00;99434.97;15281081;19;20049;-50
2023/09/24 05:49:00;;;;;;;1.05;0.95;;;;;;;7.72;100.00;99445.59;15278197;19;20019;-53
2023/09/24 05:54:25;;;;;;;2.75;1.30;;;;;;;7.76;100.00;99455.09;15281253;19;20074;-52
2023/09/24 05:59:52;;;;;;;2.80;1.40;;;;;;;7.80;100.00;99461.13;15272594;19;20271;-50
2023/09/24 06:05:22;;;;;;;2.00;1.30;;;;;;;7.87;100.00;99486.50;15281010;19;20042;-52
2023/09/24 06:10:52;;;;;;;2.13;1.20;;;;;;;7.94;100.00;99495.75;15282366;19;20019;-49
2023/09/24 06:16:19;;;;;;;2.05;1.20;;;;;;;8.01;100.00;99499.72;15277605;19;20023;-49
2023/09/24 06:21:44;;;;;;;2.65;1.20;;;;;;;8.08;100.00;99492.03;15270869;19;20747;-51
2023/09/24 06:27:09;;;;;;;3.05;1.30;;;;;;;8.17;100.00;99491.31;15276542;19;20543;-48
2023/09/24 06:32:36;;;;;;;2.15;1.30;;;;;;;8.28;100.00;99509.28;15271697;19;20031;-49
2023/09/24 06:38:02;;;;;;;3.80;1.30;;;;;;;8.47;100.00;99535.56;15273638;19;20029;-52
2023/09/24 06:43:27;;;;;;;2.58;1.23;;;;;;;8.66;100.00;99554.75;15278455;19;20505;-51
2023/09/24 06:48:56;;;;;;;1.88;1.00;;;;;;;8.87;100.00;99553.06;15276232;19;20574;-52
2023/09/24 06:54:21;;;;;;;2.22;1.20;;;;;;;9.04;100.00;99554.41;15271320;19;20027;-56
2023/09/24 06:59:46;;;;;;;1.77;1.00;;;;;;;9.25;100.00;99565.22;15274984;19;20019;-53
2023/09/24 07:05:13;;;;;;;1.40;1.00;;;;;;;9.42;100.00;99554.94;15264652;19;20090;-57
2023/09/24 07:10:38;;;;;;;2.33;1.02;;;;;;;9.61;100.00;99546.22;15277259;19;20415;-55
2023/09/24 07:16:06;;;;;;;1.95;1.00;;;;;;;9.80;100.00;99531.19;15272681;19;20020;-51
2023/09/24 07:21:34;;;;;;;1.63;1.02;;;;;;;9.98;100.00;99531.50;15247997;19;20015;-54
2023/09/24 07:27:02;;;;;;;1.90;1.20;;;;;;;10.13;100.00;99524.81;15271987;19;20312;-52
2023/09/24 07:32:28;;;;;;;1.90;1.10;;;;;;;10.32;100.00;99531.28;15275120;19;20051;-55
2023/09/24 07:37:56;;;;;;;1.67;0.98;;;;;;;10.52;100.00;99531.47;15260280;19;20019;-54
2023/09/24 07:43:21;;;;;;;2.10;1.10;;;;;;;10.69;100.00;99514.66;15266231;19;20014;-52
2023/09/24 07:48:47;;;;;;;2.00;1.20;;;;;;;10.87;100.00;99512.16;15270784;19;20423;-56
2023/09/24 07:54:15;;;;;;;1.60;1.00;;;;;;;11.03;100.00;99510.81;15266763;19;21071;-56
2023/09/24 07:59:39;;;;;;;2.17;1.10;;;;;;;11.17;100.00;99502.31;15267561;19;20778;-53
2023/09/24 08:05:04;;;;;;;2.45;1.10;;;;;;;11.35;100.00;99498.94;15267660;19;20050;-55
2023/09/24 08:10:31;;;;;;;2.03;1.00;;;;;;;11.49;100.00;99490.44;15267069;19;20090;-52
2023/09/24 08:15:58;;;;;;;2.63;1.10;;;;;;;11.67;100.00;99498.69;15268470;19;20082;-52
2023/09/24 08:21:23;;;;;;;2.92;1.10;;;;;;;11.86;100.00;99500.53;15267736;19;20019;-53
2023/09/24 08:26:50;;;;;;;2.35;1.02;;;;;;;12.01;100.00;99494.72;15262622;19;20688;-51
2023/09/24 08:32:16;;;;;;;1.60;1.10;;;;;;;12.16;100.00;99495.97;15267504;19;20011;-49
2023/09/24 08:37:42;;;;;;;2.97;1.10;;;;;;;12.33;100.00;99490.84;15267002;19;20007;-49
2023/09/24 08:43:14;;;;;;;1.48;1.00;;;;;;;12.48;100.00;99508.28;15257078;19;20006;-51
2023/09/24 08:48:41;;;;;;;2.05;1.10;;;;;;;12.63;100.00;99505.97;15268406;19;20018;-51
2023/09/24 08:54:07;;;;;;;1.73;1.10;;;;;;;12.85;100.00;99514.69;15263429;19;20013;-50
2023/09/24 08:59:35;;;;;;;2.50;1.20;;;;;;;13.09;100.00;99506.03;15261849;19;20015;-52
2023/09/24 09:05:00;;;;;;;2.30;1.00;;;;;;;13.29;100.00;99505.91;15265414;19;20452;-50
2023/09/24 09:10:29;;;;;;;2.83;1.17;;;;;;;13.45;100.00;99494.44;15264926;19;20898;-53
2023/09/24 09:16:09;;;;;;;2.55;1.00;;;;;;;13.63;100.00;99493.59;15255352;19;20018;-53
2023/09/24 09:21:34;;;;;;;1.60;1.10;;;;;;;13.82;100.00;99493.41;15264084;19;20010;-54
2023/09/24 09:27:02;;;;;;;2.35;1.10;;;;;;;13.92;100.00;99484.38;15262167;19;20099;-54
2023/09/24 09:32:38;;;;;;;3.10;1.27;;;;;;;14.06;100.00;99470.25;15258029;19;20018;-52
2023/09/24 09:38:02;;;;;;;2.25;1.20;;;;;;;14.18;100.00;99479.81;15262939;19;20487;-51
2023/09/24 09:43:29;;;;;;;2.63;1.13;;;;;;;14.27;100.00;99475.31;15259162;19;20025;-53
2023/09/24 09:49:07;;;;;;;2.45;1.20;;;;;;;14.42;100.00;99462.00;15266129;19;20025;-53
2023/09/24 09:54:37;;;;;;;1.77;1.00;;;;;;;14.57;100.00;99461.41;15264216;19;20022;-50
2023/09/24 10:00:06;;;;;;;1.92;0.88;;;;;;;14.67;100.00;99454.03;15263587;19;20006;-52
2023/09/24 10:05:35;;;;;;;1.55;0.90;;;;;;;14.85;100.00;99448.53;15256820;19;20018;-53
2023/09/24 10:11:05;;;;;;;1.40;0.73;;;;;;;15.08;100.00;99454.22;15277169;19;20034;-51
2023/09/24 10:16:38;;;;;;;1.10;0.70;;;;;;;15.34;100.00;99450.53;15268776;19;20010;-55
2023/09/24 10:22:34;;;;;;;1.63;0.75;;;;;;;15.61;100.00;99447.69;15274481;19;20010;-54
2023/09/24 10:28:04;;;;;;;1.20;0.60;;;;;;;15.81;100.00;99446.31;15275082;19;20026;-54
2023/09/24 10:34:02;;;;;;;1.17;0.65;;;;;;;16.11;100.00;99437.66;15277543;19;20011;-54
2023/09/24 10:39:31;;;;;;;1.55;0.70;;;;;;;16.33;100.00;99436.94;15270141;19;20339;-55
2023/09/24 10:44:55;;;;;;;0.65;0.45;;;;;;;16.61;100.00;99441.09;15281927;19;20013;-53
2023/09/24 10:50:23;;;;;;;1.17;0.50;;;;;;;16.74;100.00;99432.41;15269872;19;20078;-53
2023/09/24 10:55:50;;;;;;;0.90;0.40;;;;;;;16.60;100.00;99429.38;15272976;19;20020;-53
2023/09/24 11:01:32;;;;;;;1.13;0.50;;;;;;;16.61;100.00;99441.09;15273652;19;20351;-53
2023/09/24 11:06:56;;;;;;;0.95;0.30;;;;;;;16.64;100.00;99436.16;15271952;19;20467;-53
2023/09/24 11:12:24;;;;;;;0.50;0.38;;;;;;;16.70;100.00;99437.31;15268334;19;20478;-53
2023/09/24 11:17:50;;;;;;;1.42;0.50;;;;;;;16.84;100.00;99432.19;15261964;19;20036;-51
2023/09/24 11:23:15;;;;;;;0.90;0.50;;;;;;;17.19;100.00;99425.41;15258862;19;20015;-50
2023/09/24 11:28:50;;;;;;;2.33;0.50;;;;;;;17.08;100.00;99423.91;15272777;19;20010;-54
2023/09/24 11:34:24;;;;;;;1.23;0.30;;;;;;;17.22;100.00;99414.16;15274401;19;20017;-52
2023/09/24 11:39:55;;;;;;;1.17;0.50;;;;;;;17.36;100.00;99422.53;15260676;19;20486;-54
2023/09/24 11:45:49;;;;;;;3.00;0.55;;;;;;;17.66;100.00;99411.78;15272015;19;20018;-53
2023/09/24 11:51:14;;;;;;;1.00;0.40;;;;;;;17.81;100.00;99411.81;15273122;19;20019;-50
2023/09/24 11:56:39;;;;;;;0.60;0.40;;;;;;;17.97;100.00;99416.31;15263035;19;20042;-57
2023/09/24 12:02:06;;;;;;;1.48;0.43;;;;;;;18.16;100.00;99409.47;15271134;19;20006;-50
2023/09/24 12:07:33;;;;;;;0.82;0.40;;;;;;;18.42;100.00;99411.72;15272629;19;20093;-51
2023/09/24 12:13:01;;;;;;;2.08;0.40;;;;;;;18.74;100.00;99412.41;15264900;19;20039;-51
2023/09/24 12:18:29;;;;;;;0.95;0.57;;;;;;;19.05;100.00;99400.41;15269204;19;20081;-49
2023/09/24 12:23:53;;;;;;;0.50;0.30;;;;;;;19.35;100.00;99404.91;15267020;19;20013;-51
2023/09/24 12:29:18;;;;;;;1.20;0.38;;;;;;;19.60;100.00;99405.38;15264620;19;20013;-51
2023/09/24 12:34:52;;;;;;;1.02;0.35;;;;;;;19.82;100.00;99405.34;15270731;19;20011;-55
2023/09/24 12:40:18;;;;;;;0.38;0.30;;;;;;;20.18;100.00;99401.66;15268069;19;20030;-49
2023/09/24 12:45:44;;;;;;;0.80;0.38;;;;;;;20.37;100.00;99402.00;15264054;19;20369;-49
2023/09/24 12:51:12;;;;;;;1.45;0.40;;;;;;;20.37;100.00;99404.72;15271264;19;20006;-48
2023/09/24 12:56:36;;;;;;;0.40;0.30;;;;;;;20.29;100.00;99398.34;15270454;19;20334;-48
2023/09/24 13:02:01;;;;;;;1.23;0.40;;;;;;;20.02;100.00;99387.25;15258383;19;20035;-54
2023/09/24 13:07:28;;;;;;;0.68;0.30;;;;;;;19.89;100.00;99391.75;15266031;19;20082;-49
2023/09/24 13:12:53;;;;;;;0.50;0.30;;;;;;;19.34;100.00;99390.44;15267511;19;20039;-48
2023/09/24 13:18:17;;;;;;;1.35;0.30;;;;;;;19.26;100.00;99385.06;15260567;19;20009;-53
2023/09/24 13:23:51;;;;;;;1.52;0.47;;;;;;;19.14;100.00;99382.00;15263526;19;20432;-54
2023/09/24 13:29:16;;;;;;;0.63;0.30;;;;;;;19.03;100.00;99388.81;15266817;19;20011;-52
2023/09/24 13:34:41;;;;;;;0.80;0.40;;;;;;;18.99;100.00;99387.53;15262673;19;20082;-49
2023/09/24 13:40:11;;;;;;;0.73;0.30;;;;;;;19.09;100.00;99376.28;15264265;19;20014;-49
2023/09/24 13:45:53;;;;;;;0.55;0.30;;;;;;;19.48;100.00;99374.13;15279879;19;20014;-47
2023/09/24 13:51:18;;;;;;;0.40;0.30;;;;;;;19.87;100.00;99378.28;15272147;19;20017;-47
2023/09/24 13:56:45;;;;;;;0.93;0.30;;;;;;;20.37;100.00;99377.38;15278279;19;20029;-50
2023/09/24 14:02:10;;;;;;;0.63;0.30;;;;;;;20.71;93.49;99373.72;15272250;19;20082;-52
2023/09/24 14:07:34;;;;;;;1.20;0.40;;;;;;;21.23;99.76;99365.06;15278808;19;20023;-51
2023/09/24 14:13:02;;;;;;;0.20;0.20;;;;;;;21.74;82.96;99369.16;15281529;19;20078;-51
2023/09/24 14:18:27;;;;;;;0.65;0.40;;;;;;;22.22;82.39;99367.22;15273327;19;20467;-49
2023/09/24 14:23:52;;;;;;;0.77;0.40;;;;;;;22.04;79.42;99365.13;15266229;19;20035;-50
2023/09/24 14:29:20;;;;;;;0.30;0.30;;;;;;;21.66;86.01;99361.16;15279054;19;20021;-48
2023/09/24 14:34:45;;;;;;;1.75;0.30;;;;;;;21.29;88.97;99360.66;15269005;19;20018;-53
2023/09/24 14:40:10;;;;;;;1.00;0.40;;;;;;;21.24;92.78;99355.81;15275522;19;20011;-52
2023/09/24 14:45:38;;;;;;;1.25;0.30;;;;;;;21.50;82.35;99360.47;15273404;19;20086;-57
2023/09/24 14:51:03;;;;;;;1.38;0.30;;;;;;;21.89;85.00;99357.13;15286122;19;20014;-48
2023/09/24 14:56:29;;;;;;;1.52;0.40;;;;;;;22.20;80.19;99353.72;15285416;19;20357;-49
2023/09/24 15:01:56;;;;;;;0.77;0.30;;;;;;;22.53;77.42;99363.78;15292339;19;20018;-53
2023/09/24 15:07:21;;;;;;;0.88;0.30;;;;;;;22.42;69.63;99362.53;15282048;19;20467;-46
2023/09/24 15:12:46;;;;;;;0.73;0.20;;;;;;;21.95;70.48;99362.63;15286625;19;21081;-50
2023/09/24 15:18:14;;;;;;;1.73;0.30;;;;;;;21.98;70.25;99355.84;15272224;19;20340;-55
2023/09/24 15:23:39;;;;;;;0.85;0.40;;;;;;;22.22;68.57;99357.09;15276133;19;20025;-48
2023/09/24 15:29:06;;;;;;;0.60;0.20;;;;;;;22.47;63.64;99351.75;15263225;19;20818;-53
2023/09/24 15:34:34;;;;;;;0.22;0.20;;;;;;;22.71;62.16;99349.34;15271896;19;20022;-51
2023/09/24 15:40:06;;;;;;;0.57;0.28;;;;;;;22.79;63.05;99351.00;15264393;19;20029;-49
2023/09/24 15:45:31;;;;;;;5.13;0.57;;;;;;;22.70;63.63;99353.16;15270736;19;20025;-49
2023/09/24 15:50:58;;;;;;;2.38;0.40;;;;;;;22.49;66.60;99356.19;15271284;19;20073;-51
2023/09/24 15:56:23;;;;;;;7.20;0.68;;;;;;;22.53;67.61;99358.28;15266614;19;20390;-50
2023/09/24 16:01:47;;;;;;;0.90;0.30;;;;;;;22.57;68.04;99359.56;15266302;19;20014;-50
2023/09/24 16:07:15;;;;;;;1.70;0.20;;;;;;;22.57;65.89;99358.69;15268745;19;20018;-51
2023/09/24 16:12:40;;;;;;;1.23;0.40;;;;;;;22.53;69.12;99363.78;15261241;19;20519;-50
2023/09/24 16:18:06;;;;;;;1.00;0.40;;;;;;;22.40;67.84;99359.13;15267128;19;20745;-51
2023/09/24 16:23:33;;;;;;;0.50;0.30;;;;;;;22.27;70.88;99368.25;15266761;19;20022;-52
2023/09/24 16:29:01;;;;;;;1.00;0.50;;;;;;;21.93;73.08;99364.72;15264181;19;20025;-54
2023/09/24 16:34:28;;;;;;;0.85;0.57;;;;;;;21.78;76.88;99364.94;15264120;19;20042;-52
2023/09/24 16:40:03;;;;;;;3.08;0.30;;;;;;;21.66;74.15;99369.38;15266168;19;20029;-49
2023/09/24 16:45:28;;;;;;;1.38;0.40;;;;;;;21.49;78.76;99369.75;15260797;19;20110;-50
2023/09/24 16:50:53;;;;;;;1.27;0.60;;;;;;;21.19;83.81;99375.63;15268428;19;20020;-51
2023/09/24 16:56:24;;;;;;;0.68;0.40;;;;;;;20.75;82.07;99374.22;15264252;19;20018;-51
2023/09/24 17:01:50;;;;;;;1.13;0.50;;;;;;;20.16;91.58;99376.41;15268466;19;20017;-55
2023/09/24 17:07:15;;;;;;;0.40;0.32;;;;;;;19.59;98.32;99375.50;15263627;19;20035;-48
2023/09/24 17:12:44;;;;;;;0.63;0.30;;;;;;;19.05;100.00;99373.09;15268624;19;20018;-51
2023/09/24 17:18:10;;;;;;;0.30;0.30;;;;;;;18.46;100.00;99377.59;15272204;19;20086;-48
2023/09/24 17:23:34;;;;;;;1.00;0.50;;;;;;;17.92;100.00;99377.81;15278426;19;20025;-50
2023/09/24 17:29:02;;;;;;;2.00;0.70;;;;;;;17.49;100.00;99378.38;15279413;19;20690;-51
2023/09/24 17:34:26;;;;;;;1.73;0.90;;;;;;;17.07;100.00;99380.53;15286287;19;20029;-48
2023/09/24 17:39:58;;;;;;;0.80;0.68;;;;;;;16.74;100.00;99380.69;15265733;19;20011;-57
2023/09/24 17:45:26;;;;;;;0.95;0.70;;;;;;;16.52;100.00;99388.63;15273277;19;20467;-55
2023/09/24 17:50:51;;;;;;;3.05;0.80;;;;;;;16.22;100.00;99380.22;15268485;19;20010;-56
2023/09/24 17:56:16;;;;;;;0.90;0.90;;;;;;;15.99;100.00;99391.81;15280414;19;20022;-54
2023/09/24 18:01:44;;;;;;;1.15;0.80;;;;;;;15.76;100.00;99397.06;15282146;19;20875;-50
2023/09/24 18:07:08;;;;;;;0.75;0.65;;;;;;;15.50;100.00;99394.53;15278583;19;20014;-53
2023/09/24 18:12:34;;;;;;;0.95;0.68;;;;;;;15.27;100.00;99389.75;15281752;19;20518;-49
2023/09/24 18:18:02;;;;;;;0.40;0.40;;;;;;;15.10;100.00;99400.63;15276533;19;20019;-52
2023/09/24 18:23:28;;;;;;;0.85;0.45;;;;;;;14.98;100.00;99399.22;15271244;19;20494;-51
2023/09/24 18:28:53;;;;;;;0.60;0.57;;;;;;;14.80;100.00;99410.19;15275934;19;20014;-50
2023/09/24 18:34:24;;;;;;;0.40;0.38;;;;;;;14.63;100.00;99411.97;15278377;19;20039;-49
2023/09/24 18:39:48;;;;;;;1.02;0.60;;;;;;;14.47;100.00;99413.59;15268875;19;20015;-53
2023/09/24 18:45:14;;;;;;;0.90;0.63;;;;;;;14.36;100.00;99413.00;15272916;19;20010;-52
2023/09/24 18:50:42;;;;;;;0.55;0.30;;;;;;;14.22;100.00;99411.75;15272522;19;20010;-51
2023/09/24 18:56:09;;;;;;;1.30;0.52;;;;;;;14.13;100.00;99424.41;15271201;19;20036;-55
2023/09/24 19:01:35;;;;;;;1.05;0.43;;;;;;;14.04;100.00;99428.94;15294430;19;20015;-51
2023/09/24 19:07:03;;;;;;;0.50;0.30;;;;;;;13.94;100.00;99423.59;15270584;19;20082;-50
2023/09/24 19:12:29;;;;;;;1.25;0.40;;;;;;;13.80;100.00;99425.03;15269811;19;20074;-51
2023/09/24 19:17:54;;;;;;;2.00;0.50;;;;;;;13.67;100.00;99424.59;15274288;19;20015;-51
2023/09/24 19:23:21;;;;;;;0.80;0.60;;;;;;;13.57;100.00;99435.50;15273896;19;20021;-49
2023/09/24 19:28:46;;;;;;;0.50;0.40;;;;;;;13.47;100.00;99440.16;15265884;19;20011;-52
2023/09/24 19:34:12;;;;;;;1.10;0.55;;;;;;;13.39;100.00;99449.91;15274167;19;20034;-50
2023/09/24 19:39:40;;;;;;;0.90;0.50;;;;;;;13.31;100.00;99455.19;15267234;19;20021;-52
2023/09/24 19:45:07;;;;;;;0.80;0.40;;;;;;;13.23;100.00;99455.09;15265176;19;20022;-52
2023/09/24 19:50:35;;;;;;;0.82;0.40;;;;;;;13.14;100.00;99451.44;15271758;19;20063;-51
2023/09/24 19:56:02;;;;;;;1.05;0.50;;;;;;;13.06;100.00;99454.06;15272142;19;20427;-49
2023/09/24 20:01:27;;;;;;;1.02;0.60;;;;;;;12.98;100.00;99459.41;15264584;19;20019;-49
2023/09/24 20:06:51;;;;;;;0.80;0.50;;;;;;;12.93;100.00;99458.00;15270667;19;20025;-50
2023/09/24 20:12:24;;;;;;;0.95;0.47;;;;;;;12.86;100.00;99462.31;15269290;19;20015;-52
2023/09/24 20:17:49;;;;;;;0.95;0.55;;;;;;;12.78;100.00;99454.06;15264401;19;20098;-49
2023/09/24 20:23:15;;;;;;;1.35;0.50;;;;;;;12.72;100.00;99449.28;15269180;19;20038;-50
2023/09/24 20:28:44;;;;;;;1.25;0.70;;;;;;;12.66;100.00;99450.72;15270211;19;20459;-50
2023/09/24 20:34:09;;;;;;;0.50;0.50;;;;;;;12.59;100.00;99458.59;15270979;19;20017;-49
2023/09/24 20:39:33;;;;;;;2.35;0.60;;;;;;;12.54;100.00;99463.56;15263931;19;20030;-49
2023/09/24 20:45:01;;;;;;;0.80;0.57;;;;;;;12.48;100.00;99466.88;15266440;19;20029;-49
2023/09/24 20:50:26;;;;;;;1.17;0.63;;;;;;;12.41;100.00;99472.03;15260004;19;20035;-50
2023/09/24 20:55:51;;;;;;;0.40;0.40;;;;;;;12.36;100.00;99468.06;15269761;19;20015;-50
2023/09/24 21:01:20;;;;;;;0.80;0.40;;;;;;;12.30;100.00;99470.34;15261095;19;20018;-53
2023/09/24 21:06:46;;;;;;;1.92;0.63;;;;;;;12.26;100.00;99477.06;15264898;19;20014;-51
2023/09/24 21:12:11;;;;;;;1.08;0.60;;;;;;;12.22;100.00;99470.22;15268859;19;20031;-52
2023/09/24 21:17:40;;;;;;;1.08;0.60;;;;;;;12.19;100.00;99470.50;15266564;19;20111;-52
2023/09/24 21:23:05;;;;;;;1.20;0.43;;;;;;;12.16;100.00;99473.53;15261568;19;20429;-53
2023/09/24 21:28:32;;;;;;;0.50;0.50;;;;;;;12.13;100.00;99465.72;15268448;19;20019;-49
2023/09/24 21:34:00;;;;;;;0.88;0.50;;;;;;;12.11;100.00;99468.53;15259813;19;20015;-52
2023/09/24 21:39:25;;;;;;;1.23;0.57;;;;;;;12.08;100.00;99470.69;15264671;19;20346;-50
2023/09/24 21:44:55;;;;;;;0.68;0.50;;;;;;;12.07;100.00;99467.13;15264950;19;20604;-49
2023/09/24 21:50:23;;;;;;;1.00;0.60;;;;;;;12.05;100.00;99462.88;15260866;19;20033;-51
2023/09/24 21:55:48;;;;;;;2.30;0.50;;;;;;;12.02;100.00;99459.47;15260625;19;20487;-53
2023/09/24 22:01:14;;;;;;;0.80;0.60;;;;;;;12.01;100.00;99457.78;15268458;19;20015;-51
2023/09/24 22:06:41;;;;;;;2.33;0.70;;;;;;;11.98;100.00;99458.06;15271121;19;20020;-53
2023/09/24 22:12:06;;;;;;;1.67;0.70;;;;;;;11.94;100.00;99456.59;15281419;19;20025;-49
2023/09/24 22:17:33;;;;;;;1.05;0.70;;;;;;;11.91;100.00;99462.31;15278087;19;20011;-49
2023/09/24 22:23:02;;;;;;;1.25;0.70;;;;;;;11.82;100.00;99446.94;15279991;19;20042;-54
2023/09/24 22:28:27;;;;;;;0.90;0.70;;;;;;;11.75;100.00;99445.81;15272591;19;20041;-48
2023/09/24 22:33:51;;;;;;;2.83;0.80;;;;;;;11.68;100.00;99440.16;15278300;19;21020;-52
2023/09/24 22:39:18;;;;;;;0.95;0.80;;;;;;;11.64;100.00;99444.16;15269896;19;20022;-50
2023/09/24 22:44:43;;;;;;;0.98;0.60;;;;;;;11.58;100.00;99445.56;15277883;19;20333;-48
2023/09/24 22:50:09;;;;;;;0.85;0.55;;;;;;;11.57;100.00;99439.31;15275100;19;20486;-47
2023/09/24 22:55:37;;;;;;;0.77;0.60;;;;;;;11.54;100.00;99444.16;15277078;19;20483;-48
2023/09/24 23:01:04;;;;;;;1.05;0.60;;;;;;;11.52;100.00;99438.03;15272649;19;20320;-50
2023/09/24 23:06:31;;;;;;;2.40;0.85;;;;;;;11.42;100.00;99424.53;15275076;19;20014;-48
2023/09/24 23:12:00;;;;;;;1.27;0.75;;;;;;;11.32;100.00;99419.16;15264768;19;20014;-50
2023/09/24 23:17:25;;;;;;;2.17;0.70;;;;;;;11.20;100.00;99418.41;15275195;19;20086;-51
2023/09/24 23:22:52;;;;;;;1.63;0.70;;;;;;;11.17;100.00;99415.16;15276724;19;20014;-51
2023/09/24 23:28:21;;;;;;;1.52;0.70;;;;;;;11.10;100.00;99410.34;15270608;19;20361;-50
2023/09/24 23:33:46;;;;;;;2.25;0.80;;;;;;;11.07;100.00;99409.75;15269652;19;20530;-48
2023/09/24 23:39:18;;;;;;;1.30;0.88;;;;;;;11.01;100.00;99411.16;15273679;19;20014;-50
2023/09/24 23:44:46;;;;;;;2.72;0.88;;;;;;;10.99;100.00;99412.28;15268303;19;20015;-51
2023/09/24 23:50:12;;;;;;;1.58;0.90;;;;;;;10.92;100.00;99412.88;15272146;19;20014;-53
2023/09/24 23:55:37;;;;;;;1.52;0.80;;;;;;;10.89;100.00;99415.84;15275272;19;20070;-50
